createdAt,value
2022-08-05T00:00:10.209Z,60.6
2022-08-05T00:06:03.389Z,61.45
2022-08-05T00:10:48.874Z,62.12
2022-08-05T00:16:08.525Z,61.88
2022-08-05T00:21:27.561Z,61.9
2022-08-05T00:26:50.961Z,62.15
2022-08-05T00:32:11.265Z,62.71
2022-08-05T00:37:25.594Z,63.28
2022-08-05T00:42:44.519Z,63.64
2022-08-05T00:48:05.125Z,64.03
2022-08-05T00:53:45.589Z,64.76
2022-08-05T00:58:42.452Z,64.87
2022-08-05T01:04:00.260Z,65.16
2022-08-05T01:09:20.161Z,65.85
2022-08-05T01:17:53.602Z,68.32
2022-08-05T01:25:39.502Z,70.36
2022-08-05T01:30:36.625Z,67.57
2022-08-05T01:35:55.654Z,60.92
2022-08-05T01:41:14.750Z,56.16
2022-08-05T01:46:41.688Z,54.84
2022-08-05T01:51:53.492Z,54.38
2022-08-05T01:58:18.843Z,54.46
2022-08-05T02:02:31.771Z,55.24
2022-08-05T02:11:04.737Z,55.82
2022-08-05T02:15:21.282Z,57.2
2022-08-05T02:19:40.626Z,58.03
2022-08-05T02:29:07.510Z,59.18
2022-08-05T02:34:38.116Z,59.8
2022-08-05T02:39:47.625Z,60.38
2022-08-05T02:45:05.579Z,60.89
2022-08-05T02:50:52.387Z,61.39
2022-08-05T02:56:15.852Z,62.21
2022-08-05T03:01:30.634Z,62.55
2022-08-05T03:06:53.479Z,62.92
2022-08-05T03:12:08.555Z,63.34
2022-08-05T03:17:27.348Z,63.09
2022-08-05T03:22:49.933Z,63.19
2022-08-05T03:28:06.173Z,64.44
2022-08-05T03:33:24.941Z,65.32
2022-08-05T03:38:54.163Z,65.1
2022-08-05T03:44:08.584Z,65.06
2022-08-05T03:49:24.147Z,65.5
2022-08-05T03:55:34.830Z,65.96
2022-08-05T04:00:01.564Z,66.04
2022-08-05T04:05:19.590Z,66.07
2022-08-05T04:10:38.790Z,66.87
2022-08-05T04:19:11.815Z,67.68
2022-08-05T04:21:17.810Z,68.22
2022-08-05T04:26:36.295Z,68.92
2022-08-05T04:31:56.805Z,70.12
2022-08-05T04:37:14.651Z,70.55
2022-08-05T04:42:44.876Z,71.19
2022-08-05T04:51:11.304Z,70.48
2022-08-05T04:55:23.918Z,70.78
2022-08-05T04:58:30.692Z,70.3
2022-08-05T05:03:50.174Z,69.26
2022-08-05T05:09:09.263Z,68.08
2022-08-05T05:14:31.793Z,68.12
2022-08-05T05:19:47.802Z,68.05
2022-08-05T05:25:16.223Z,68.78
2022-08-05T05:30:29.020Z,68.26
2022-08-05T05:35:55.352Z,69.08
2022-08-05T05:41:03.844Z,65.41
2022-08-05T05:46:23.400Z,61.52
2022-08-05T05:51:49.790Z,59.53
2022-08-05T05:57:01.548Z,57.79
2022-08-05T06:02:32.758Z,55.28
2022-08-05T06:07:41.415Z,54.35
2022-08-05T06:12:59.407Z,54.29
2022-08-05T06:18:18.264Z,54.1
2022-08-05T06:23:43.865Z,53.78
2022-08-05T06:32:17.269Z,53.71
2022-08-05T06:34:15.282Z,53.44
2022-08-05T06:44:53.935Z,53.21
2022-08-05T06:50:17.311Z,53.16
2022-08-05T06:55:36.286Z,53.1
2022-08-05T07:00:50.299Z,53.63
2022-08-05T07:06:14.097Z,53.75
2022-08-05T07:14:42.292Z,52.21
2022-08-05T07:27:25.858Z,49.36
2022-08-05T07:32:44.669Z,48.6
2022-08-05T07:38:03.890Z,49.48
2022-08-05T07:43:23.294Z,49.3
2022-08-05T07:51:56.358Z,48.22
2022-08-05T08:00:29.405Z,52.22
2022-08-05T08:04:45.945Z,52.47
2022-08-05T08:09:58.959Z,53.19
2022-08-05T08:15:18.429Z,53.21
2022-08-05T08:20:44.843Z,53.81
2022-08-05T08:25:59.654Z,54.91
2022-08-05T08:31:17.449Z,53.61
2022-08-05T08:36:46.329Z,53.7
2022-08-05T08:41:58.730Z,53.14
2022-08-05T08:47:22.002Z,50.85
2022-08-05T08:56:03.354Z,45.54
2022-08-05T09:00:02.020Z,45.6
2022-08-05T09:08:35.081Z,43.09
2022-08-05T09:17:09.402Z,41.48
2022-08-05T09:19:07.251Z,39.66
2022-08-05T09:29:47.862Z,41.13
2022-08-05T09:38:27.659Z,41.04
2022-08-05T09:51:14.766Z,39.14
2022-08-05T09:56:21.128Z,38.93
2022-08-05T10:04:54.229Z,35.98
2022-08-05T10:09:10.700Z,34.78
2022-08-05T10:12:30.876Z,33.5
2022-08-05T10:17:39.995Z,34.99
2022-08-05T10:22:57.205Z,37
2022-08-05T10:28:17.407Z,36.96
2022-08-05T10:33:35.311Z,36.15
2022-08-05T10:39:05.177Z,35.33
2022-08-05T10:44:12.693Z,32.65
2022-08-05T10:49:33.183Z,31.93
2022-08-05T10:55:01.249Z,33.37
2022-08-05T11:00:12.139Z,32.33
2022-08-05T11:05:31.655Z,32.61
2022-08-05T11:10:49.950Z,32.18
2022-08-05T11:20:09.709Z,31.85
2022-08-05T11:26:49.517Z,32.43
2022-08-05T11:32:05.749Z,31.35
2022-08-05T11:38:27.469Z,32.04
2022-08-05T11:42:44.211Z,30.94
2022-08-05T11:51:43.811Z,30.31
2022-08-05T11:53:21.922Z,29.94
2022-08-05T12:04:00.535Z,30.3
2022-08-05T12:09:19.873Z,30.09
2022-08-05T12:14:38.228Z,30.15
2022-08-05T12:20:17.327Z,28.85
2022-08-05T12:25:16.641Z,30.09
2022-08-05T12:30:35.801Z,29.88
2022-08-05T12:35:54.838Z,31.44
2022-08-05T12:41:25.729Z,31.04
2022-08-05T12:50:02.662Z,30.6
2022-08-05T12:52:11.542Z,30.92
2022-08-05T13:02:30.918Z,30.67
2022-08-05T13:07:59.598Z,31.87
2022-08-05T13:16:25.038Z,32.15
2022-08-05T13:18:28.968Z,32.79
2022-08-05T13:29:07.965Z,32.66
2022-08-05T13:34:26.688Z,32.96
2022-08-05T13:40:14.954Z,33.32
2022-08-05T13:45:03.957Z,32.39
2022-08-05T13:50:23.043Z,31.42
2022-08-05T13:59:19.341Z,34.2
2022-08-05T14:03:12.733Z,35.97
2022-08-05T14:06:26.575Z,36.45
2022-08-05T14:12:00.516Z,38.04
2022-08-05T14:16:58.893Z,39.37
2022-08-05T14:25:31.944Z,39.43
2022-08-05T14:38:28.011Z,40.55
2022-08-05T14:43:54.045Z,40.73
2022-08-05T14:48:54.581Z,40.16
2022-08-05T14:54:27.201Z,40.7
2022-08-05T14:59:35.323Z,41.29
2022-08-05T15:04:52.569Z,42.63
2022-08-05T15:10:11.802Z,41.43
2022-08-05T15:15:54.735Z,42.48
2022-08-05T15:20:49.577Z,43.03
2022-08-05T15:26:31.642Z,43.56
2022-08-05T15:31:34.621Z,44.5
2022-08-05T15:36:47.325Z,45.28
2022-08-05T15:42:50.234Z,45.93
2022-08-05T15:47:25.333Z,46.72
2022-08-05T15:56:01.707Z,47.87
2022-08-05T15:58:04.057Z,47.9
2022-08-05T16:08:41.806Z,48.46
2022-08-05T16:14:01.479Z,49.25
2022-08-05T16:19:25.942Z,50.12
2022-08-05T16:24:51.484Z,50.41
2022-08-05T16:33:13.844Z,50.91
2022-08-05T16:40:39.176Z,52.1
2022-08-05T16:46:03.380Z,52.26
2022-08-05T16:51:17.754Z,52.55
2022-08-05T16:56:37.272Z,52.64
2022-08-05T17:01:56.950Z,51.78
2022-08-05T17:07:16.012Z,51.98
2022-08-05T17:12:50.745Z,53.17
2022-08-05T17:17:54.927Z,53.95
2022-08-05T17:23:19.573Z,54.84
2022-08-05T17:28:32.866Z,55.67
2022-08-05T17:33:51.595Z,56.59
2022-08-05T17:39:24.056Z,57.02
2022-08-05T17:44:32.420Z,56.83
2022-08-05T17:49:51.871Z,56.63
2022-08-05T17:58:21.833Z,56.83
2022-08-05T18:05:47.910Z,56.5
2022-08-05T18:11:04.461Z,57.27
2022-08-05T18:16:23.708Z,58.27
2022-08-05T18:22:06.928Z,58.99
2022-08-05T18:27:01.625Z,59.61
2022-08-05T18:32:20.821Z,60.24
2022-08-05T18:37:40.614Z,60.94
2022-08-05T18:42:59.011Z,61.47
2022-08-05T18:48:30.963Z,62.01
2022-08-05T18:53:43.143Z,62.25
2022-08-05T18:59:00.936Z,62.71
2022-08-05T19:04:23.849Z,63.77
2022-08-05T19:09:39.010Z,64.5
2022-08-05T19:15:00.210Z,65.11
2022-08-05T19:20:12.476Z,65.19
2022-08-05T19:25:39.009Z,65.62
2022-08-05T19:30:51.110Z,65.94
2022-08-05T19:36:10.561Z,66.69
2022-08-05T19:41:58.581Z,67.17
2022-08-05T19:46:50.231Z,67.44
2022-08-05T19:56:11.966Z,67.57
2022-08-05T19:57:46.599Z,67.69
2022-08-05T20:02:46.227Z,66.8
2022-08-05T20:11:19.419Z,66.69
2022-08-05T20:13:29.890Z,65.98
2022-08-05T20:24:02.450Z,66.86
2022-08-05T20:32:35.486Z,67.42
2022-08-05T20:40:00.221Z,68
2022-08-05T20:45:47.865Z,67.99
2022-08-05T20:50:42.497Z,66.08
2022-08-05T20:56:08.098Z,65.4
2022-08-05T21:01:37.645Z,64.82
2022-08-05T21:06:36.460Z,64.29
2022-08-05T21:12:07.874Z,62.04
2022-08-05T21:17:15.085Z,61.03
2022-08-05T21:22:34.482Z,60.44
2022-08-05T21:27:53.308Z,59.95
2022-08-05T21:36:27.813Z,59.85
2022-08-05T21:36:54.270Z,59.81
2022-08-05T21:42:30.837Z,59.93
2022-08-05T21:47:33.007Z,60.19
2022-08-05T21:52:51.074Z,60.41
2022-08-05T21:58:11.643Z,61.3
2022-08-05T22:03:49.241Z,61.41
2022-08-05T22:08:48.451Z,61.7
2022-08-05T22:14:20.055Z,61.97
2022-08-05T22:19:57.125Z,62.16
2022-08-05T22:24:51.935Z,61.98
2022-08-05T22:30:05.187Z,61.71
2022-08-05T22:35:24.102Z,61.45
2022-08-05T22:40:49.719Z,62.01
2022-08-05T22:46:05.914Z,61.8
2022-08-05T22:51:22.592Z,61.73
2022-08-05T22:56:40.831Z,62.4
2022-08-05T23:05:13.920Z,62.71
2022-08-05T23:07:19.885Z,62.95
2022-08-05T23:12:39.302Z,63.29
2022-08-05T23:18:00.013Z,63.65
2022-08-05T23:23:17.835Z,63.71
2022-08-05T23:28:36.609Z,63.71
2022-08-05T23:34:03.427Z,64.03
2022-08-05T23:39:16.441Z,63.87
2022-08-05T23:44:34.450Z,64.71
2022-08-05T23:49:55.798Z,64.62
2022-08-05T23:55:13.174Z,64.6
